sensor_id;sensor_type;location;lat;lon;timestamp;P1;durP1;ratioP1;P2;durP2;ratioP2
6420;SDS011;3243;50.958;7.012;2023-12-20T00:02:16;13.37;;;11.23;;
6420;SDS011;3243;50.958;7.012;2023-12-20T00:04:43;10.53;;;9.50;;
6420;SDS011;3243;50.958;7.012;2023-12-20T00:07:11;12.60;;;11.17;;
6420;SDS011;3243;50.958;7.012;2023-12-20T00:09:38;14.90;;;12.20;;
6420;SDS011;3243;50.958;7.012;2023-12-20T00:12:05;13.83;;;11.07;;
6420;SDS011;3243;50.958;7.012;2023-12-20T00:14:32;14.40;;;11.70;;
6420;SDS011;3243;50.958;7.012;2023-12-20T00:16:59;13.53;;;11.43;;
6420;SDS011;3243;50.958;7.012;2023-12-20T00:19:26;12.27;;;10.90;;
6420;SDS011;3243;50.958;7.012;2023-12-20T00:21:54;14.50;;;11.60;;
6420;SDS011;3243;50.958;7.012;2023-12-20T00:24:21;11.27;;;10.10;;
6420;SDS011;3243;50.958;7.012;2023-12-20T00:26:48;13.00;;;10.50;;
6420;SDS011;3243;50.958;7.012;2023-12-20T00:29:15;11.37;;;9.97;;
6420;SDS011;3243;50.958;7.012;2023-12-20T00:31:41;11.63;;;10.43;;
6420;SDS011;3243;50.958;7.012;2023-12-20T00:34:09;14.23;;;10.60;;
6420;SDS011;3243;50.958;7.012;2023-12-20T00:36:36;12.53;;;10.33;;
6420;SDS011;3243;50.958;7.012;2023-12-20T00:39:03;10.20;;;9.10;;
6420;SDS011;3243;50.958;7.012;2023-12-20T00:41:30;10.40;;;8.97;;
6420;SDS011;3243;50.958;7.012;2023-12-20T00:43:57;9.73;;;8.47;;
6420;SDS011;3243;50.958;7.012;2023-12-20T00:46:24;9.83;;;8.70;;
6420;SDS011;3243;50.958;7.012;2023-12-20T00:48:52;11.63;;;7.97;;
6420;SDS011;3243;50.958;7.012;2023-12-20T00:51:19;10.60;;;7.90;;
6420;SDS011;3243;50.958;7.012;2023-12-20T00:53:46;12.27;;;7.10;;
6420;SDS011;3243;50.958;7.012;2023-12-20T00:56:15;7.57;;;6.60;;
6420;SDS011;3243;50.958;7.012;2023-12-20T00:58:42;8.17;;;6.70;;
6420;SDS011;3243;50.958;7.012;2023-12-20T01:01:09;8.67;;;6.40;;
6420;SDS011;3243;50.958;7.012;2023-12-20T01:03:37;7.10;;;5.73;;
6420;SDS011;3243;50.958;7.012;2023-12-20T01:06:04;8.03;;;5.80;;
6420;SDS011;3243;50.958;7.012;2023-12-20T01:08:31;9.03;;;5.70;;
6420;SDS011;3243;50.958;7.012;2023-12-20T01:10:58;9.57;;;5.40;;
6420;SDS011;3243;50.958;7.012;2023-12-20T01:13:25;8.37;;;4.80;;
6420;SDS011;3243;50.958;7.012;2023-12-20T01:15:52;7.53;;;4.93;;
6420;SDS011;3243;50.958;7.012;2023-12-20T01:18:19;6.67;;;4.43;;
6420;SDS011;3243;50.958;7.012;2023-12-20T01:20:46;7.53;;;4.80;;
6420;SDS011;3243;50.958;7.012;2023-12-20T01:23:13;5.57;;;4.70;;
6420;SDS011;3243;50.958;7.012;2023-12-20T01:25:40;6.13;;;4.57;;
6420;SDS011;3243;50.958;7.012;2023-12-20T01:28:07;7.10;;;5.13;;
6420;SDS011;3243;50.958;7.012;2023-12-20T01:30:34;6.40;;;4.97;;
6420;SDS011;3243;50.958;7.012;2023-12-20T01:33:02;8.60;;;4.90;;
6420;SDS011;3243;50.958;7.012;2023-12-20T01:35:29;10.17;;;5.17;;
6420;SDS011;3243;50.958;7.012;2023-12-20T01:37:56;7.17;;;4.53;;
6420;SDS011;3243;50.958;7.012;2023-12-20T01:40:23;9.30;;;5.43;;
6420;SDS011;3243;50.958;7.012;2023-12-20T01:43:06;8.00;;;5.20;;
6420;SDS011;3243;50.958;7.012;2023-12-20T01:45:34;9.40;;;5.67;;
6420;SDS011;3243;50.958;7.012;2023-12-20T01:48:02;8.93;;;5.63;;
6420;SDS011;3243;50.958;7.012;2023-12-20T01:50:29;12.77;;;6.50;;
6420;SDS011;3243;50.958;7.012;2023-12-20T01:52:58;10.67;;;7.27;;
6420;SDS011;3243;50.958;7.012;2023-12-20T01:55:27;10.37;;;7.40;;
6420;SDS011;3243;50.958;7.012;2023-12-20T01:57:56;12.57;;;8.90;;
6420;SDS011;3243;50.958;7.012;2023-12-20T02:00:24;19.20;;;10.13;;
6420;SDS011;3243;50.958;7.012;2023-12-20T02:02:53;15.27;;;10.20;;
6420;SDS011;3243;50.958;7.012;2023-12-20T02:05:23;14.53;;;9.23;;
6420;SDS011;3243;50.958;7.012;2023-12-20T02:07:51;14.93;;;9.60;;
6420;SDS011;3243;50.958;7.012;2023-12-20T02:10:19;14.63;;;10.20;;
6420;SDS011;3243;50.958;7.012;2023-12-20T02:12:46;13.53;;;9.93;;
6420;SDS011;3243;50.958;7.012;2023-12-20T02:15:14;15.33;;;10.73;;
6420;SDS011;3243;50.958;7.012;2023-12-20T02:17:41;18.87;;;11.30;;
6420;SDS011;3243;50.958;7.012;2023-12-20T02:20:09;15.40;;;11.07;;
6420;SDS011;3243;50.958;7.012;2023-12-20T02:22:36;24.60;;;12.30;;
6420;SDS011;3243;50.958;7.012;2023-12-20T02:25:03;18.63;;;10.67;;
6420;SDS011;3243;50.958;7.012;2023-12-20T02:27:30;20.10;;;10.63;;
6420;SDS011;3243;50.958;7.012;2023-12-20T02:29:58;16.80;;;8.93;;
6420;SDS011;3243;50.958;7.012;2023-12-20T02:32:25;15.70;;;8.83;;
6420;SDS011;3243;50.958;7.012;2023-12-20T02:34:55;14.87;;;8.47;;
6420;SDS011;3243;50.958;7.012;2023-12-20T02:37:23;12.07;;;7.27;;
6420;SDS011;3243;50.958;7.012;2023-12-20T02:39:50;14.90;;;7.43;;
6420;SDS011;3243;50.958;7.012;2023-12-20T02:42:17;15.77;;;7.10;;
6420;SDS011;3243;50.958;7.012;2023-12-20T02:44:44;14.93;;;5.73;;
6420;SDS011;3243;50.958;7.012;2023-12-20T02:47:11;13.23;;;6.37;;
6420;SDS011;3243;50.958;7.012;2023-12-20T02:49:37;15.33;;;6.77;;
6420;SDS011;3243;50.958;7.012;2023-12-20T02:52:05;14.90;;;6.57;;
6420;SDS011;3243;50.958;7.012;2023-12-20T02:54:32;13.53;;;6.33;;
6420;SDS011;3243;50.958;7.012;2023-12-20T02:56:59;16.60;;;5.67;;
6420;SDS011;3243;50.958;7.012;2023-12-20T02:59:26;12.20;;;4.93;;
6420;SDS011;3243;50.958;7.012;2023-12-20T03:01:53;11.70;;;4.70;;
6420;SDS011;3243;50.958;7.012;2023-12-20T03:04:20;15.20;;;4.87;;
6420;SDS011;3243;50.958;7.012;2023-12-20T03:06:48;15.00;;;4.40;;
6420;SDS011;3243;50.958;7.012;2023-12-20T03:09:15;11.60;;;4.37;;
6420;SDS011;3243;50.958;7.012;2023-12-20T03:11:42;13.73;;;4.50;;
6420;SDS011;3243;50.958;7.012;2023-12-20T03:14:09;16.83;;;4.47;;
6420;SDS011;3243;50.958;7.012;2023-12-20T03:16:37;11.60;;;3.70;;
6420;SDS011;3243;50.958;7.012;2023-12-20T03:19:04;12.00;;;3.87;;
6420;SDS011;3243;50.958;7.012;2023-12-20T03:21:31;10.33;;;3.20;;
6420;SDS011;3243;50.958;7.012;2023-12-20T03:23:58;13.20;;;3.50;;
6420;SDS011;3243;50.958;7.012;2023-12-20T03:26:25;10.03;;;3.00;;
6420;SDS011;3243;50.958;7.012;2023-12-20T03:28:53;12.13;;;3.53;;
6420;SDS011;3243;50.958;7.012;2023-12-20T03:31:20;10.57;;;3.00;;
6420;SDS011;3243;50.958;7.012;2023-12-20T03:33:47;7.93;;;2.50;;
6420;SDS011;3243;50.958;7.012;2023-12-20T03:36:14;9.33;;;2.90;;
6420;SDS011;3243;50.958;7.012;2023-12-20T03:38:41;10.83;;;2.70;;
6420;SDS011;3243;50.958;7.012;2023-12-20T03:41:09;9.77;;;2.97;;
6420;SDS011;3243;50.958;7.012;2023-12-20T03:43:36;11.93;;;3.27;;
6420;SDS011;3243;50.958;7.012;2023-12-20T03:46:03;12.33;;;3.33;;
6420;SDS011;3243;50.958;7.012;2023-12-20T03:48:31;11.67;;;3.27;;
6420;SDS011;3243;50.958;7.012;2023-12-20T03:50:58;11.50;;;3.03;;
6420;SDS011;3243;50.958;7.012;2023-12-20T03:53:25;9.10;;;3.40;;
6420;SDS011;3243;50.958;7.012;2023-12-20T03:55:52;12.73;;;3.43;;
6420;SDS011;3243;50.958;7.012;2023-12-20T03:58:19;13.77;;;3.40;;
6420;SDS011;3243;50.958;7.012;2023-12-20T04:00:46;11.00;;;3.43;;
6420;SDS011;3243;50.958;7.012;2023-12-20T04:03:13;8.90;;;2.70;;
6420;SDS011;3243;50.958;7.012;2023-12-20T04:05:40;11.93;;;3.17;;
6420;SDS011;3243;50.958;7.012;2023-12-20T04:08:07;18.93;;;4.10;;
6420;SDS011;3243;50.958;7.012;2023-12-20T04:10:35;11.77;;;3.07;;
6420;SDS011;3243;50.958;7.012;2023-12-20T04:13:03;15.47;;;4.63;;
6420;SDS011;3243;50.958;7.012;2023-12-20T04:15:30;14.67;;;3.67;;
6420;SDS011;3243;50.958;7.012;2023-12-20T04:17:57;14.20;;;3.70;;
6420;SDS011;3243;50.958;7.012;2023-12-20T04:20:25;11.30;;;3.40;;
6420;SDS011;3243;50.958;7.012;2023-12-20T04:22:52;14.60;;;3.93;;
6420;SDS011;3243;50.958;7.012;2023-12-20T04:25:18;9.63;;;3.23;;
6420;SDS011;3243;50.958;7.012;2023-12-20T04:27:46;15.60;;;4.43;;
6420;SDS011;3243;50.958;7.012;2023-12-20T04:30:14;11.57;;;3.50;;
6420;SDS011;3243;50.958;7.012;2023-12-20T04:32:41;11.53;;;3.37;;
6420;SDS011;3243;50.958;7.012;2023-12-20T04:35:08;15.00;;;4.20;;
6420;SDS011;3243;50.958;7.012;2023-12-20T04:37:35;14.80;;;4.00;;
6420;SDS011;3243;50.958;7.012;2023-12-20T04:40:02;14.53;;;4.10;;
6420;SDS011;3243;50.958;7.012;2023-12-20T04:42:31;14.03;;;3.73;;
6420;SDS011;3243;50.958;7.012;2023-12-20T04:44:59;17.87;;;3.97;;
6420;SDS011;3243;50.958;7.012;2023-12-20T04:47:25;12.87;;;3.70;;
6420;SDS011;3243;50.958;7.012;2023-12-20T04:49:53;12.37;;;3.97;;
6420;SDS011;3243;50.958;7.012;2023-12-20T04:52:20;14.60;;;3.90;;
6420;SDS011;3243;50.958;7.012;2023-12-20T04:54:47;17.37;;;4.10;;
6420;SDS011;3243;50.958;7.012;2023-12-20T04:57:14;12.73;;;4.27;;
6420;SDS011;3243;50.958;7.012;2023-12-20T04:59:41;16.37;;;4.00;;
6420;SDS011;3243;50.958;7.012;2023-12-20T05:02:08;15.47;;;4.53;;
6420;SDS011;3243;50.958;7.012;2023-12-20T05:04:35;13.97;;;4.53;;
6420;SDS011;3243;50.958;7.012;2023-12-20T05:07:02;14.37;;;4.07;;
6420;SDS011;3243;50.958;7.012;2023-12-20T05:09:31;15.37;;;4.40;;
6420;SDS011;3243;50.958;7.012;2023-12-20T05:11:58;13.23;;;4.13;;
6420;SDS011;3243;50.958;7.012;2023-12-20T05:14:25;13.13;;;4.17;;
6420;SDS011;3243;50.958;7.012;2023-12-20T05:16:52;8.77;;;3.80;;
6420;SDS011;3243;50.958;7.012;2023-12-20T05:19:19;11.20;;;3.70;;
6420;SDS011;3243;50.958;7.012;2023-12-20T05:21:46;10.83;;;3.60;;
6420;SDS011;3243;50.958;7.012;2023-12-20T05:24:13;13.93;;;3.60;;
6420;SDS011;3243;50.958;7.012;2023-12-20T05:26:41;15.43;;;4.03;;
6420;SDS011;3243;50.958;7.012;2023-12-20T05:29:08;9.47;;;4.00;;
6420;SDS011;3243;50.958;7.012;2023-12-20T05:31:35;13.83;;;4.17;;
6420;SDS011;3243;50.958;7.012;2023-12-20T05:34:02;13.80;;;3.67;;
6420;SDS011;3243;50.958;7.012;2023-12-20T05:36:29;12.60;;;3.73;;
6420;SDS011;3243;50.958;7.012;2023-12-20T05:38:56;10.90;;;4.17;;
6420;SDS011;3243;50.958;7.012;2023-12-20T05:41:23;14.57;;;4.63;;
6420;SDS011;3243;50.958;7.012;2023-12-20T05:43:50;13.37;;;4.10;;
6420;SDS011;3243;50.958;7.012;2023-12-20T05:46:17;13.43;;;4.43;;
6420;SDS011;3243;50.958;7.012;2023-12-20T05:48:44;15.17;;;4.60;;
6420;SDS011;3243;50.958;7.012;2023-12-20T05:51:12;14.93;;;4.23;;
6420;SDS011;3243;50.958;7.012;2023-12-20T05:53:39;15.83;;;4.60;;
6420;SDS011;3243;50.958;7.012;2023-12-20T05:56:06;9.30;;;3.70;;
6420;SDS011;3243;50.958;7.012;2023-12-20T05:58:33;12.00;;;4.10;;
6420;SDS011;3243;50.958;7.012;2023-12-20T06:01:00;12.43;;;4.00;;
6420;SDS011;3243;50.958;7.012;2023-12-20T06:03:27;14.93;;;4.20;;
6420;SDS011;3243;50.958;7.012;2023-12-20T06:05:55;13.67;;;4.13;;
6420;SDS011;3243;50.958;7.012;2023-12-20T06:08:38;12.47;;;4.30;;
6420;SDS011;3243;50.958;7.012;2023-12-20T06:11:05;13.17;;;4.23;;
6420;SDS011;3243;50.958;7.012;2023-12-20T06:13:32;14.23;;;4.17;;
6420;SDS011;3243;50.958;7.012;2023-12-20T06:15:59;13.23;;;4.00;;
6420;SDS011;3243;50.958;7.012;2023-12-20T06:18:26;19.00;;;4.00;;
6420;SDS011;3243;50.958;7.012;2023-12-20T06:20:54;14.83;;;4.40;;
6420;SDS011;3243;50.958;7.012;2023-12-20T06:23:21;11.53;;;3.90;;
6420;SDS011;3243;50.958;7.012;2023-12-20T06:25:48;17.57;;;4.10;;
6420;SDS011;3243;50.958;7.012;2023-12-20T06:28:15;18.13;;;4.60;;
6420;SDS011;3243;50.958;7.012;2023-12-20T06:30:42;19.50;;;4.20;;
6420;SDS011;3243;50.958;7.012;2023-12-20T06:33:09;17.50;;;4.43;;
6420;SDS011;3243;50.958;7.012;2023-12-20T06:35:37;15.60;;;4.27;;
6420;SDS011;3243;50.958;7.012;2023-12-20T06:38:05;13.57;;;4.00;;
6420;SDS011;3243;50.958;7.012;2023-12-20T06:40:32;12.87;;;4.10;;
6420;SDS011;3243;50.958;7.012;2023-12-20T06:42:58;11.40;;;4.20;;
6420;SDS011;3243;50.958;7.012;2023-12-20T06:45:37;11.23;;;3.93;;
6420;SDS011;3243;50.958;7.012;2023-12-20T06:48:04;12.67;;;4.10;;
6420;SDS011;3243;50.958;7.012;2023-12-20T06:50:32;14.50;;;3.77;;
6420;SDS011;3243;50.958;7.012;2023-12-20T06:52:59;13.87;;;4.33;;
6420;SDS011;3243;50.958;7.012;2023-12-20T06:55:33;18.87;;;4.70;;
6420;SDS011;3243;50.958;7.012;2023-12-20T06:58:01;19.87;;;5.13;;
6420;SDS011;3243;50.958;7.012;2023-12-20T07:00:28;14.13;;;4.33;;
6420;SDS011;3243;50.958;7.012;2023-12-20T07:02:56;6.97;;;3.33;;
6420;SDS011;3243;50.958;7.012;2023-12-20T07:05:23;16.40;;;4.00;;
6420;SDS011;3243;50.958;7.012;2023-12-20T07:07:50;14.57;;;4.10;;
6420;SDS011;3243;50.958;7.012;2023-12-20T07:10:17;14.23;;;4.10;;
6420;SDS011;3243;50.958;7.012;2023-12-20T07:12:45;16.40;;;4.50;;
6420;SDS011;3243;50.958;7.012;2023-12-20T07:15:11;13.00;;;3.87;;
6420;SDS011;3243;50.958;7.012;2023-12-20T07:17:39;10.23;;;4.00;;
6420;SDS011;3243;50.958;7.012;2023-12-20T07:20:06;16.57;;;4.30;;
6420;SDS011;3243;50.958;7.012;2023-12-20T07:22:37;13.47;;;3.97;;
6420;SDS011;3243;50.958;7.012;2023-12-20T07:25:04;10.57;;;3.80;;
6420;SDS011;3243;50.958;7.012;2023-12-20T07:27:31;11.57;;;3.60;;
6420;SDS011;3243;50.958;7.012;2023-12-20T07:29:58;15.43;;;3.70;;
6420;SDS011;3243;50.958;7.012;2023-12-20T07:32:25;17.53;;;4.13;;
6420;SDS011;3243;50.958;7.012;2023-12-20T07:34:52;15.13;;;4.37;;
6420;SDS011;3243;50.958;7.012;2023-12-20T07:37:21;12.90;;;3.90;;
6420;SDS011;3243;50.958;7.012;2023-12-20T07:39:48;14.10;;;4.27;;
6420;SDS011;3243;50.958;7.012;2023-12-20T07:42:15;16.07;;;4.50;;
6420;SDS011;3243;50.958;7.012;2023-12-20T07:44:42;12.43;;;4.00;;
6420;SDS011;3243;50.958;7.012;2023-12-20T07:47:09;17.40;;;4.47;;
6420;SDS011;3243;50.958;7.012;2023-12-20T07:49:38;20.77;;;4.83;;
6420;SDS011;3243;50.958;7.012;2023-12-20T07:52:05;11.17;;;4.17;;
6420;SDS011;3243;50.958;7.012;2023-12-20T07:54:34;12.67;;;4.20;;
6420;SDS011;3243;50.958;7.012;2023-12-20T07:57:01;10.57;;;3.97;;
6420;SDS011;3243;50.958;7.012;2023-12-20T07:59:28;13.83;;;4.70;;
6420;SDS011;3243;50.958;7.012;2023-12-20T08:01:58;15.27;;;4.70;;
6420;SDS011;3243;50.958;7.012;2023-12-20T08:04:26;22.83;;;5.20;;
6420;SDS011;3243;50.958;7.012;2023-12-20T08:06:54;14.90;;;4.30;;
6420;SDS011;3243;50.958;7.012;2023-12-20T08:09:21;14.50;;;4.60;;
6420;SDS011;3243;50.958;7.012;2023-12-20T08:11:48;10.70;;;4.47;;
6420;SDS011;3243;50.958;7.012;2023-12-20T08:14:15;14.20;;;4.63;;
6420;SDS011;3243;50.958;7.012;2023-12-20T08:16:42;10.60;;;4.07;;
6420;SDS011;3243;50.958;7.012;2023-12-20T08:19:09;11.40;;;4.27;;
6420;SDS011;3243;50.958;7.012;2023-12-20T08:21:36;11.40;;;3.87;;
6420;SDS011;3243;50.958;7.012;2023-12-20T08:24:04;14.20;;;4.60;;
6420;SDS011;3243;50.958;7.012;2023-12-20T08:26:32;16.77;;;4.43;;
6420;SDS011;3243;50.958;7.012;2023-12-20T08:28:59;13.70;;;3.90;;
6420;SDS011;3243;50.958;7.012;2023-12-20T08:31:28;13.90;;;3.97;;
6420;SDS011;3243;50.958;7.012;2023-12-20T08:33:55;19.20;;;5.37;;
6420;SDS011;3243;50.958;7.012;2023-12-20T08:36:23;17.33;;;4.20;;
6420;SDS011;3243;50.958;7.012;2023-12-20T08:38:50;14.20;;;4.60;;
6420;SDS011;3243;50.958;7.012;2023-12-20T08:41:17;12.23;;;4.27;;
6420;SDS011;3243;50.958;7.012;2023-12-20T08:43:44;11.33;;;3.93;;
6420;SDS011;3243;50.958;7.012;2023-12-20T08:54:27;19.17;;;4.50;;
6420;SDS011;3243;50.958;7.012;2023-12-20T08:56:49;11.83;;;4.13;;
6420;SDS011;3243;50.958;7.012;2023-12-20T08:59:16;13.83;;;4.60;;
6420;SDS011;3243;50.958;7.012;2023-12-20T09:01:44;11.53;;;3.87;;
6420;SDS011;3243;50.958;7.012;2023-12-20T09:04:12;8.80;;;3.60;;
6420;SDS011;3243;50.958;7.012;2023-12-20T09:06:39;12.37;;;4.00;;
6420;SDS011;3243;50.958;7.012;2023-12-20T09:09:06;14.90;;;4.17;;
6420;SDS011;3243;50.958;7.012;2023-12-20T09:11:36;14.17;;;3.70;;
6420;SDS011;3243;50.958;7.012;2023-12-20T09:14:03;12.80;;;4.03;;
6420;SDS011;3243;50.958;7.012;2023-12-20T09:16:30;9.27;;;3.60;;
6420;SDS011;3243;50.958;7.012;2023-12-20T09:19:00;12.27;;;4.20;;
6420;SDS011;3243;50.958;7.012;2023-12-20T09:21:27;10.17;;;3.80;;
6420;SDS011;3243;50.958;7.012;2023-12-20T09:23:54;14.17;;;4.37;;
6420;SDS011;3243;50.958;7.012;2023-12-20T09:26:21;15.40;;;3.60;;
6420;SDS011;3243;50.958;7.012;2023-12-20T09:28:48;11.37;;;3.90;;
6420;SDS011;3243;50.958;7.012;2023-12-20T09:31:15;13.87;;;4.20;;
6420;SDS011;3243;50.958;7.012;2023-12-20T09:33:42;17.23;;;3.93;;
6420;SDS011;3243;50.958;7.012;2023-12-20T09:36:09;10.13;;;3.83;;
6420;SDS011;3243;50.958;7.012;2023-12-20T09:38:36;14.73;;;4.10;;
6420;SDS011;3243;50.958;7.012;2023-12-20T09:41:03;13.83;;;3.97;;
6420;SDS011;3243;50.958;7.012;2023-12-20T09:43:31;10.83;;;3.40;;
6420;SDS011;3243;50.958;7.012;2023-12-20T09:46:04;12.33;;;3.87;;
6420;SDS011;3243;50.958;7.012;2023-12-20T09:48:36;13.23;;;3.90;;
6420;SDS011;3243;50.958;7.012;2023-12-20T09:51:04;13.90;;;3.83;;
6420;SDS011;3243;50.958;7.012;2023-12-20T09:53:32;17.17;;;4.83;;
6420;SDS011;3243;50.958;7.012;2023-12-20T09:56:02;12.77;;;3.57;;
6420;SDS011;3243;50.958;7.012;2023-12-20T09:58:29;8.00;;;3.40;;
6420;SDS011;3243;50.958;7.012;2023-12-20T10:00:56;8.27;;;3.00;;
6420;SDS011;3243;50.958;7.012;2023-12-20T10:03:25;16.03;;;3.60;;
6420;SDS011;3243;50.958;7.012;2023-12-20T10:05:55;14.40;;;3.37;;
6420;SDS011;3243;50.958;7.012;2023-12-20T10:08:24;12.87;;;3.63;;
6420;SDS011;3243;50.958;7.012;2023-12-20T10:10:51;16.03;;;3.57;;
6420;SDS011;3243;50.958;7.012;2023-12-20T10:13:18;13.80;;;3.53;;
6420;SDS011;3243;50.958;7.012;2023-12-20T10:15:46;14.40;;;4.27;;
6420;SDS011;3243;50.958;7.012;2023-12-20T10:18:13;15.83;;;3.83;;
6420;SDS011;3243;50.958;7.012;2023-12-20T10:20:40;13.00;;;3.63;;
6420;SDS011;3243;50.958;7.012;2023-12-20T10:23:10;13.50;;;3.70;;
6420;SDS011;3243;50.958;7.012;2023-12-20T10:25:39;15.13;;;4.00;;
6420;SDS011;3243;50.958;7.012;2023-12-20T10:28:09;15.40;;;3.53;;
6420;SDS011;3243;50.958;7.012;2023-12-20T10:30:36;14.73;;;3.87;;
6420;SDS011;3243;50.958;7.012;2023-12-20T10:33:03;13.87;;;4.43;;
6420;SDS011;3243;50.958;7.012;2023-12-20T10:35:33;15.17;;;3.70;;
6420;SDS011;3243;50.958;7.012;2023-12-20T10:38:02;16.37;;;3.40;;
6420;SDS011;3243;50.958;7.012;2023-12-20T10:40:34;10.73;;;3.07;;
6420;SDS011;3243;50.958;7.012;2023-12-20T10:43:05;14.20;;;3.63;;
6420;SDS011;3243;50.958;7.012;2023-12-20T10:45:32;11.47;;;3.80;;
6420;SDS011;3243;50.958;7.012;2023-12-20T10:48:01;10.90;;;3.23;;
6420;SDS011;3243;50.958;7.012;2023-12-20T10:50:29;12.10;;;3.50;;
6420;SDS011;3243;50.958;7.012;2023-12-20T10:52:58;13.83;;;3.50;;
6420;SDS011;3243;50.958;7.012;2023-12-20T10:55:26;9.07;;;2.73;;
6420;SDS011;3243;50.958;7.012;2023-12-20T10:57:54;9.20;;;3.40;;
6420;SDS011;3243;50.958;7.012;2023-12-20T11:00:28;12.20;;;2.87;;
6420;SDS011;3243;50.958;7.012;2023-12-20T11:02:59;11.60;;;3.50;;
6420;SDS011;3243;50.958;7.012;2023-12-20T11:10:33;11.70;;;3.23;;
6420;SDS011;3243;50.958;7.012;2023-12-20T11:13:17;14.67;;;3.73;;
6420;SDS011;3243;50.958;7.012;2023-12-20T11:15:48;11.77;;;3.50;;
6420;SDS011;3243;50.958;7.012;2023-12-20T11:18:16;9.63;;;3.47;;
6420;SDS011;3243;50.958;7.012;2023-12-20T11:20:42;11.43;;;3.17;;
6420;SDS011;3243;50.958;7.012;2023-12-20T11:23:09;14.20;;;4.33;;
6420;SDS011;3243;50.958;7.012;2023-12-20T11:25:52;9.97;;;2.67;;
6420;SDS011;3243;50.958;7.012;2023-12-20T11:28:20;12.67;;;3.30;;
6420;SDS011;3243;50.958;7.012;2023-12-20T11:30:55;10.07;;;2.90;;
6420;SDS011;3243;50.958;7.012;2023-12-20T11:33:36;11.70;;;3.00;;
6420;SDS011;3243;50.958;7.012;2023-12-20T11:36:12;10.67;;;3.20;;
6420;SDS011;3243;50.958;7.012;2023-12-20T11:38:54;12.00;;;3.33;;
6420;SDS011;3243;50.958;7.012;2023-12-20T11:41:23;12.37;;;3.10;;
6420;SDS011;3243;50.958;7.012;2023-12-20T11:43:54;12.93;;;3.23;;
6420;SDS011;3243;50.958;7.012;2023-12-20T11:46:22;14.57;;;3.00;;
6420;SDS011;3243;50.958;7.012;2023-12-20T11:48:51;10.17;;;3.27;;
6420;SDS011;3243;50.958;7.012;2023-12-20T11:51:18;12.23;;;3.30;;
6420;SDS011;3243;50.958;7.012;2023-12-20T11:53:45;9.33;;;3.47;;
6420;SDS011;3243;50.958;7.012;2023-12-20T11:56:18;13.83;;;3.47;;
6420;SDS011;3243;50.958;7.012;2023-12-20T11:58:45;13.00;;;4.67;;
6420;SDS011;3243;50.958;7.012;2023-12-20T12:01:15;11.23;;;3.57;;
6420;SDS011;3243;50.958;7.012;2023-12-20T12:03:42;11.80;;;3.20;;
6420;SDS011;3243;50.958;7.012;2023-12-20T12:06:09;11.10;;;3.10;;
6420;SDS011;3243;50.958;7.012;2023-12-20T12:08:36;13.10;;;3.17;;
6420;SDS011;3243;50.958;7.012;2023-12-20T12:11:04;11.97;;;3.00;;
6420;SDS011;3243;50.958;7.012;2023-12-20T12:13:31;10.60;;;3.47;;
6420;SDS011;3243;50.958;7.012;2023-12-20T12:15:58;20.17;;;3.43;;
6420;SDS011;3243;50.958;7.012;2023-12-20T12:18:25;16.40;;;3.50;;
6420;SDS011;3243;50.958;7.012;2023-12-20T12:20:59;11.90;;;3.13;;
6420;SDS011;3243;50.958;7.012;2023-12-20T12:23:27;12.17;;;3.50;;
6420;SDS011;3243;50.958;7.012;2023-12-20T12:25:54;13.83;;;3.07;;
6420;SDS011;3243;50.958;7.012;2023-12-20T12:28:21;9.37;;;3.20;;
6420;SDS011;3243;50.958;7.012;2023-12-20T12:31:00;7.17;;;2.90;;
6420;SDS011;3243;50.958;7.012;2023-12-20T12:33:27;12.77;;;3.90;;
6420;SDS011;3243;50.958;7.012;2023-12-20T12:35:54;13.07;;;3.73;;
6420;SDS011;3243;50.958;7.012;2023-12-20T12:38:22;17.90;;;3.27;;
6420;SDS011;3243;50.958;7.012;2023-12-20T12:40:50;12.43;;;3.27;;
6420;SDS011;3243;50.958;7.012;2023-12-20T12:43:19;11.20;;;3.07;;
6420;SDS011;3243;50.958;7.012;2023-12-20T12:45:46;11.87;;;2.83;;
6420;SDS011;3243;50.958;7.012;2023-12-20T12:48:14;11.40;;;3.33;;
6420;SDS011;3243;50.958;7.012;2023-12-20T12:50:41;11.90;;;3.40;;
6420;SDS011;3243;50.958;7.012;2023-12-20T12:53:07;12.97;;;3.97;;
6420;SDS011;3243;50.958;7.012;2023-12-20T12:55:35;13.47;;;3.57;;
6420;SDS011;3243;50.958;7.012;2023-12-20T12:58:02;9.33;;;3.83;;
6420;SDS011;3243;50.958;7.012;2023-12-20T13:00:30;12.00;;;3.37;;
6420;SDS011;3243;50.958;7.012;2023-12-20T13:02:57;11.13;;;3.57;;
6420;SDS011;3243;50.958;7.012;2023-12-20T13:05:24;13.33;;;3.50;;
6420;SDS011;3243;50.958;7.012;2023-12-20T13:07:51;12.40;;;3.43;;
6420;SDS011;3243;50.958;7.012;2023-12-20T13:10:19;11.30;;;3.43;;
6420;SDS011;3243;50.958;7.012;2023-12-20T13:12:46;10.57;;;3.67;;
6420;SDS011;3243;50.958;7.012;2023-12-20T13:15:13;12.37;;;4.00;;
6420;SDS011;3243;50.958;7.012;2023-12-20T13:17:40;15.50;;;4.33;;
6420;SDS011;3243;50.958;7.012;2023-12-20T13:20:07;16.80;;;3.97;;
6420;SDS011;3243;50.958;7.012;2023-12-20T13:22:35;13.40;;;3.80;;
6420;SDS011;3243;50.958;7.012;2023-12-20T13:25:02;14.57;;;4.47;;
6420;SDS011;3243;50.958;7.012;2023-12-20T13:27:29;12.60;;;3.60;;
6420;SDS011;3243;50.958;7.012;2023-12-20T13:29:57;9.37;;;3.37;;
6420;SDS011;3243;50.958;7.012;2023-12-20T13:32:24;12.17;;;3.83;;
6420;SDS011;3243;50.958;7.012;2023-12-20T13:34:51;13.73;;;3.83;;
6420;SDS011;3243;50.958;7.012;2023-12-20T13:37:19;14.07;;;3.70;;
6420;SDS011;3243;50.958;7.012;2023-12-20T13:39:47;12.97;;;3.60;;
6420;SDS011;3243;50.958;7.012;2023-12-20T13:42:14;11.13;;;3.83;;
6420;SDS011;3243;50.958;7.012;2023-12-20T13:44:41;10.47;;;3.40;;
6420;SDS011;3243;50.958;7.012;2023-12-20T13:47:07;10.67;;;4.03;;
6420;SDS011;3243;50.958;7.012;2023-12-20T13:49:34;8.27;;;3.00;;
6420;SDS011;3243;50.958;7.012;2023-12-20T13:52:02;9.67;;;3.30;;
6420;SDS011;3243;50.958;7.012;2023-12-20T13:54:30;10.47;;;3.17;;
6420;SDS011;3243;50.958;7.012;2023-12-20T13:56:57;11.87;;;3.73;;
6420;SDS011;3243;50.958;7.012;2023-12-20T13:59:37;11.77;;;3.37;;
6420;SDS011;3243;50.958;7.012;2023-12-20T14:02:05;11.63;;;4.00;;
6420;SDS011;3243;50.958;7.012;2023-12-20T14:04:31;9.73;;;3.03;;
6420;SDS011;3243;50.958;7.012;2023-12-20T14:07:08;7.10;;;3.23;;
6420;SDS011;3243;50.958;7.012;2023-12-20T14:09:37;9.93;;;2.83;;
6420;SDS011;3243;50.958;7.012;2023-12-20T14:12:04;12.90;;;3.17;;
6420;SDS011;3243;50.958;7.012;2023-12-20T14:14:32;12.70;;;4.00;;
6420;SDS011;3243;50.958;7.012;2023-12-20T14:16:59;11.17;;;3.40;;
6420;SDS011;3243;50.958;7.012;2023-12-20T14:19:26;7.70;;;3.13;;
6420;SDS011;3243;50.958;7.012;2023-12-20T14:21:53;10.20;;;3.40;;
6420;SDS011;3243;50.958;7.012;2023-12-20T14:24:20;9.70;;;3.57;;
6420;SDS011;3243;50.958;7.012;2023-12-20T14:26:47;11.77;;;3.03;;
6420;SDS011;3243;50.958;7.012;2023-12-20T14:29:14;11.33;;;3.43;;
6420;SDS011;3243;50.958;7.012;2023-12-20T14:31:41;12.80;;;3.50;;
6420;SDS011;3243;50.958;7.012;2023-12-20T14:34:08;8.67;;;3.40;;
6420;SDS011;3243;50.958;7.012;2023-12-20T14:36:35;9.93;;;3.30;;
6420;SDS011;3243;50.958;7.012;2023-12-20T14:39:03;13.97;;;3.17;;
6420;SDS011;3243;50.958;7.012;2023-12-20T14:41:30;9.20;;;3.20;;
6420;SDS011;3243;50.958;7.012;2023-12-20T14:43:58;12.07;;;4.30;;
6420;SDS011;3243;50.958;7.012;2023-12-20T14:46:31;7.90;;;3.10;;
6420;SDS011;3243;50.958;7.012;2023-12-20T14:48:57;8.73;;;3.00;;
6420;SDS011;3243;50.958;7.012;2023-12-20T14:51:24;12.10;;;3.53;;
6420;SDS011;3243;50.958;7.012;2023-12-20T14:53:51;9.97;;;3.50;;
6420;SDS011;3243;50.958;7.012;2023-12-20T14:56:18;12.93;;;3.73;;
6420;SDS011;3243;50.958;7.012;2023-12-20T14:58:46;7.77;;;3.10;;
6420;SDS011;3243;50.958;7.012;2023-12-20T15:01:13;11.33;;;3.20;;
6420;SDS011;3243;50.958;7.012;2023-12-20T15:03:41;8.07;;;3.03;;
6420;SDS011;3243;50.958;7.012;2023-12-20T15:06:08;10.07;;;3.33;;
6420;SDS011;3243;50.958;7.012;2023-12-20T15:08:38;12.93;;;3.70;;
6420;SDS011;3243;50.958;7.012;2023-12-20T15:11:05;7.13;;;3.10;;
6420;SDS011;3243;50.958;7.012;2023-12-20T15:13:31;10.97;;;3.57;;
6420;SDS011;3243;50.958;7.012;2023-12-20T15:15:59;15.80;;;4.00;;
6420;SDS011;3243;50.958;7.012;2023-12-20T15:18:26;8.27;;;3.10;;
6420;SDS011;3243;50.958;7.012;2023-12-20T15:20:53;10.10;;;3.20;;